Time;durP1;ratioP1;P1;durP2;ratioP2;P2;SDS_P1;SDS_P2;PMS_P1;PMS_P2;Temp;Humidity;BMP_temperature;BMP_pressure;BME280_temperature;BME280_humidity;BME280_pressure;Samples;Min_cycle;Max_cycle;Signal;HPM_P1;HPM_P2
2022/03/29 00:02:06;;;;;;;4.20;2.20;;;12.20;99.90;;;;;;5033455;28;20429;-54
2022/03/29 00:04:33;;;;;;;6.10;2.35;;;12.20;99.90;;;;;;5033483;28;20443;-53
2022/03/29 00:07:00;;;;;;;4.90;1.90;;;12.10;99.90;;;;;;5034817;28;20522;-54
2022/03/29 00:09:28;;;;;;;5.70;2.63;;;12.10;99.90;;;;;;5033539;28;20538;-54
2022/03/29 00:11:55;;;;;;;4.30;2.05;;;12.10;99.90;;;;;;5033701;28;20423;-52
2022/03/29 00:14:22;;;;;;;3.00;2.20;;;12.10;99.90;;;;;;5031925;28;20727;-51
2022/03/29 00:16:49;;;;;;;2.90;2.20;;;12.10;99.90;;;;;;5032997;28;20514;-54
2022/03/29 00:19:15;;;;;;;3.90;2.33;;;12.10;99.90;;;;;;5032456;28;20538;-54
2022/03/29 00:21:42;;;;;;;4.15;2.08;;;12.10;99.90;;;;;;5032635;28;20505;-54
2022/03/29 00:24:09;;;;;;;4.03;2.15;;;12.10;99.90;;;;;;5032750;28;20480;-54
2022/03/29 00:26:37;;;;;;;3.40;1.60;;;12.00;99.90;;;;;;5034161;28;20433;-55
2022/03/29 00:29:04;;;;;;;5.28;2.47;;;12.00;99.90;;;;;;5033387;28;20802;-52
2022/03/29 00:31:32;;;;;;;3.55;2.10;;;12.00;99.90;;;;;;5034722;28;20430;-54
2022/03/29 00:33:59;;;;;;;5.53;2.50;;;12.00;99.90;;;;;;5037027;28;20898;-53
2022/03/29 00:36:28;;;;;;;4.00;2.50;;;12.00;99.90;;;;;;5036769;28;20459;-54
2022/03/29 00:38:55;;;;;;;3.00;1.85;;;12.00;99.90;;;;;;5035700;28;20775;-57
2022/03/29 00:41:22;;;;;;;6.60;2.30;;;12.00;99.90;;;;;;5035171;28;20462;-55
2022/03/29 00:43:50;;;;;;;4.60;2.20;;;12.00;99.90;;;;;;5034554;28;20526;-53
2022/03/29 00:46:17;;;;;;;2.83;2.00;;;11.90;99.90;;;;;;5036825;28;20542;-53
2022/03/29 00:48:44;;;;;;;3.35;1.88;;;11.90;99.90;;;;;;5036539;28;20423;-54
2022/03/29 00:51:12;;;;;;;5.73;2.30;;;11.90;99.90;;;;;;5035685;28;20509;-55
2022/03/29 00:53:39;;;;;;;3.20;2.40;;;11.90;99.90;;;;;;5035021;28;20894;-53
2022/03/29 00:56:06;;;;;;;3.42;1.77;;;11.90;99.90;;;;;;5036323;28;20431;-52
2022/03/29 00:58:34;;;;;;;5.33;1.90;;;11.80;99.90;;;;;;5037507;28;20512;-54
2022/03/29 01:01:03;;;;;;;3.85;2.25;;;11.80;99.90;;;;;;5036630;28;20473;-53
2022/03/29 01:03:31;;;;;;;3.47;2.25;;;11.80;99.90;;;;;;5037758;28;20533;-50
2022/03/29 01:05:58;;;;;;;5.30;2.35;;;11.80;99.90;;;;;;5037080;28;20437;-52
2022/03/29 01:08:25;;;;;;;4.28;2.50;;;11.80;99.90;;;;;;5037735;28;20771;-54
2022/03/29 01:10:52;;;;;;;4.93;2.28;;;11.80;99.90;;;;;;5036954;28;20438;-54
2022/03/29 01:13:19;;;;;;;4.40;2.20;;;11.80;99.90;;;;;;5037698;28;20419;-53
2022/03/29 01:15:47;;;;;;;5.20;2.67;;;11.80;99.90;;;;;;5035376;28;20723;-54
2022/03/29 01:18:18;;;;;;;3.35;2.40;;;11.80;99.90;;;;;;5036483;28;20488;-55
2022/03/29 01:20:49;;;;;;;4.17;2.30;;;11.80;99.90;;;;;;5035908;28;20435;-54
2022/03/29 01:23:18;;;;;;;4.88;2.38;;;11.70;99.90;;;;;;5036485;28;20746;-55
2022/03/29 01:25:46;;;;;;;4.47;2.22;;;11.70;99.90;;;;;;5035026;28;20505;-51
2022/03/29 01:28:16;;;;;;;5.07;2.33;;;11.70;99.90;;;;;;5036480;28;20454;-54
2022/03/29 01:30:44;;;;;;;5.53;2.70;;;11.70;99.90;;;;;;5036434;28;20514;-52
2022/03/29 01:33:11;;;;;;;4.03;2.20;;;11.70;99.90;;;;;;5037091;28;20768;-54
2022/03/29 01:35:40;;;;;;;4.95;2.70;;;11.60;99.90;;;;;;5036639;28;20430;-53
2022/03/29 01:38:07;;;;;;;3.40;2.30;;;11.70;99.90;;;;;;5036897;28;20434;-54
2022/03/29 01:40:35;;;;;;;5.32;2.17;;;11.70;99.90;;;;;;5037048;28;20430;-53
2022/03/29 01:43:03;;;;;;;3.13;1.60;;;11.70;99.90;;;;;;5036693;28;20427;-51
2022/03/29 01:45:32;;;;;;;3.80;2.30;;;11.70;99.90;;;;;;5034578;28;20539;-54
2022/03/29 01:47:59;;;;;;;2.78;1.75;;;11.60;99.90;;;;;;5036269;28;20483;-53
2022/03/29 01:50:27;;;;;;;3.80;2.10;;;11.60;99.90;;;;;;5035242;28;20432;-50
2022/03/29 01:52:54;;;;;;;4.32;2.40;;;11.60;99.90;;;;;;5035925;28;20437;-53
2022/03/29 01:55:22;;;;;;;5.78;2.20;;;11.60;99.90;;;;;;5037081;28;20784;-52
2022/03/29 01:57:53;;;;;;;4.43;2.80;;;11.60;99.90;;;;;;5035750;28;20521;-54
2022/03/29 02:00:33;;;;;;;5.13;2.72;;;11.60;99.90;;;;;;5036757;28;20496;-55
2022/03/29 02:03:02;;;;;;;4.80;2.83;;;11.60;99.90;;;;;;5036211;28;20442;-55
2022/03/29 02:05:30;;;;;;;5.20;2.90;;;11.60;99.90;;;;;;5035305;28;20467;-55
2022/03/29 02:07:58;;;;;;;4.40;2.50;;;11.60;99.90;;;;;;5034954;28;20501;-55
2022/03/29 02:10:25;;;;;;;5.83;2.70;;;11.60;99.90;;;;;;5035621;28;20427;-54
2022/03/29 02:12:53;;;;;;;5.18;3.30;;;11.60;99.90;;;;;;5034528;28;20579;-52
2022/03/29 02:15:20;;;;;;;3.83;2.72;;;11.60;99.90;;;;;;5035221;28;20509;-54
2022/03/29 02:17:48;;;;;;;4.22;2.30;;;11.60;99.90;;;;;;5034006;28;20430;-55
2022/03/29 02:20:15;;;;;;;4.45;2.35;;;11.60;99.90;;;;;;5036967;28;20423;-55
2022/03/29 02:22:43;;;;;;;4.85;3.47;;;11.60;99.90;;;;;;5035952;28;20534;-55
2022/03/29 02:25:11;;;;;;;5.10;2.70;;;11.60;99.90;;;;;;5036326;28;20946;-55
2022/03/29 02:27:38;;;;;;;3.75;2.40;;;11.60;99.90;;;;;;5035441;28;20738;-54
2022/03/29 02:30:08;;;;;;;5.50;2.80;;;11.50;99.90;;;;;;5036796;28;20415;-55
2022/03/29 02:32:35;;;;;;;4.97;2.50;;;11.50;99.90;;;;;;5035589;28;20434;-54
2022/03/29 02:35:02;;;;;;;6.28;2.63;;;11.50;1.00;;;;;;5036390;28;20511;-55
2022/03/29 02:37:29;;;;;;;4.23;2.27;;;11.50;1.00;;;;;;5035754;28;20526;-55
2022/03/29 02:39:56;;;;;;;5.03;2.50;;;11.50;1.00;;;;;;5035968;28;20514;-50
2022/03/29 02:42:23;;;;;;;3.78;2.42;;;11.50;1.00;;;;;;5034097;28;20534;-52
2022/03/29 02:44:50;;;;;;;6.45;2.78;;;11.50;1.00;;;;;;5034734;28;20471;-55
2022/03/29 02:47:19;;;;;;;5.57;2.45;;;11.50;1.00;;;;;;5034342;28;20521;-55
2022/03/29 02:49:46;;;;;;;3.92;2.08;;;11.50;1.00;;;;;;5035939;28;20427;-52
2022/03/29 02:52:13;;;;;;;4.00;2.45;;;11.50;1.00;;;;;;5034424;28;20597;-52
2022/03/29 02:54:41;;;;;;;4.93;2.25;;;11.50;1.00;;;;;;5035078;28;20790;-54
2022/03/29 02:57:09;;;;;;;3.75;2.20;;;11.50;1.00;;;;;;5032519;28;20434;-54
2022/03/29 02:59:36;;;;;;;6.38;2.40;;;11.60;1.00;;;;;;5033942;28;20423;-53
2022/03/29 03:02:04;;;;;;;7.07;2.90;;;11.50;1.00;;;;;;5032498;28;20921;-54
2022/03/29 03:04:32;;;;;;;4.32;2.47;;;11.50;1.00;;;;;;5033525;28;20524;-54
2022/03/29 03:06:59;;;;;;;7.03;2.90;;;11.50;1.00;;;;;;5033204;28;20509;-54
2022/03/29 03:09:25;;;;;;;5.05;2.47;;;11.50;1.00;;;;;;5033869;28;20517;-54
2022/03/29 03:11:52;;;;;;;4.80;2.90;;;11.50;1.00;;;;;;5033742;28;20704;-53
2022/03/29 03:14:19;;;;;;;5.65;3.20;;;11.50;1.00;;;;;;5034020;28;20509;-54
2022/03/29 03:16:46;;;;;;;3.67;2.38;;;11.50;1.00;;;;;;5033523;28;20470;-53
2022/03/29 03:19:13;;;;;;;4.45;2.85;;;11.40;1.00;;;;;;5034350;28;20422;-49
2022/03/29 03:21:42;;;;;;;4.90;2.67;;;11.40;1.00;;;;;;5034096;28;20435;-55
2022/03/29 03:24:08;;;;;;;4.68;2.60;;;11.40;1.00;;;;;;5035511;28;20519;-53
2022/03/29 03:26:35;;;;;;;4.25;2.90;;;11.40;1.00;;;;;;5034192;28;20542;-54
2022/03/29 03:29:02;;;;;;;4.55;2.75;;;11.40;1.00;;;;;;5035034;28;20502;-53
2022/03/29 03:31:29;;;;;;;4.85;3.00;;;11.30;1.00;;;;;;5034404;28;20434;-49
2022/03/29 03:33:56;;;;;;;4.45;3.05;;;11.30;1.00;;;;;;5035399;28;20451;-54
2022/03/29 03:36:23;;;;;;;4.05;3.20;;;11.30;1.00;;;;;;5034103;28;20506;-54
2022/03/29 03:38:51;;;;;;;5.57;2.60;;;11.20;1.00;;;;;;5035546;28;20823;-54
2022/03/29 03:41:18;;;;;;;4.03;2.47;;;11.20;1.00;;;;;;5034403;28;20434;-52
2022/03/29 03:43:47;;;;;;;3.97;2.50;;;11.20;1.00;;;;;;5034843;28;20850;-50
2022/03/29 03:46:14;;;;;;;6.05;3.35;;;11.20;1.00;;;;;;5033832;28;20510;-55
2022/03/29 03:48:40;;;;;;;5.32;2.78;;;11.20;1.00;;;;;;5035253;28;20473;-53
2022/03/29 03:51:08;;;;;;;4.13;2.70;;;11.20;1.00;;;;;;5033022;28;20798;-54
2022/03/29 03:53:34;;;;;;;5.80;2.92;;;11.10;1.00;;;;;;5033792;28;20518;-51
2022/03/29 03:56:03;;;;;;;4.90;3.20;;;11.20;1.00;;;;;;5032536;28;20466;-49
2022/03/29 03:58:30;;;;;;;4.18;2.90;;;11.20;1.00;;;;;;5033376;28;20429;-50
2022/03/29 04:00:56;;;;;;;4.13;2.57;;;11.10;99.90;;;;;;5032552;28;20930;-50
2022/03/29 04:03:23;;;;;;;6.50;3.08;;;11.00;1.00;;;;;;5032170;28;20530;-51
2022/03/29 04:05:52;;;;;;;4.47;3.00;;;11.00;1.00;;;;;;5031145;28;20462;-52
2022/03/29 04:08:19;;;;;;;4.60;3.40;;;11.00;1.00;;;;;;5039194;28;20431;-56
2022/03/29 04:10:46;;;;;;;4.32;2.83;;;10.80;1.00;;;;;;5039777;28;20838;-52
2022/03/29 04:13:14;;;;;;;4.18;2.70;;;10.90;1.00;;;;;;5041036;28;20918;-54
2022/03/29 04:15:41;;;;;;;7.10;3.80;;;10.90;1.00;;;;;;5039279;28;20674;-52
2022/03/29 04:18:08;;;;;;;6.00;3.25;;;10.80;1.00;;;;;;5038574;28;20488;-55
2022/03/29 04:20:35;;;;;;;5.07;3.30;;;10.70;1.00;;;;;;5037092;28;20695;-54
2022/03/29 04:23:02;;;;;;;6.37;3.00;;;10.80;1.00;;;;;;5038378;28;21102;-53
2022/03/29 04:25:29;;;;;;;6.00;2.53;;;10.80;1.00;;;;;;5040308;28;20517;-54
2022/03/29 04:27:56;;;;;;;4.70;2.70;;;10.70;1.00;;;;;;5040803;28;20431;-54
2022/03/29 04:30:24;;;;;;;4.75;2.75;;;10.60;1.00;;;;;;5040879;28;20510;-55
2022/03/29 04:32:51;;;;;;;4.55;3.42;;;10.50;1.00;;;;;;5040325;28;20802;-53
2022/03/29 04:35:18;;;;;;;5.50;3.50;;;10.50;1.00;;;;;;5041388;28;20497;-57
2022/03/29 04:37:44;;;;;;;5.43;3.97;;;10.30;1.00;;;;;;5040005;28;20547;-53
2022/03/29 04:40:12;;;;;;;7.30;3.63;;;10.10;1.00;;;;;;5038937;28;20862;-50
2022/03/29 04:42:44;;;;;;;5.55;3.15;;;10.10;1.00;;;;;;5037404;28;20526;-54
2022/03/29 04:45:11;;;;;;;7.28;3.63;;;10.20;1.00;;;;;;5037754;28;20937;-52
2022/03/29 04:47:40;;;;;;;6.37;3.47;;;10.30;1.00;;;;;;5021131;28;20440;-55
2022/03/29 04:50:08;;;;;;;5.32;2.90;;;10.40;1.00;;;;;;5019800;28;20472;-55
2022/03/29 04:52:35;;;;;;;6.95;3.40;;;10.40;1.00;;;;;;5019849;28;20463;-56
2022/03/29 04:55:02;;;;;;;6.57;3.40;;;10.40;1.00;;;;;;5020733;28;20729;-54
2022/03/29 04:57:29;;;;;;;7.35;3.58;;;10.40;1.00;;;;;;5019067;28;20438;-56
2022/03/29 04:59:56;;;;;;;5.32;3.33;;;10.20;1.00;;;;;;5019705;28;20432;-57
2022/03/29 05:02:23;;;;;;;5.30;3.10;;;10.10;1.00;;;;;;5020236;28;20507;-56
2022/03/29 05:04:52;;;;;;;5.55;3.05;;;10.10;1.00;;;;;;5020980;28;20856;-54
2022/03/29 05:07:22;;;;;;;4.50;3.13;;;10.10;1.00;;;;;;5020074;28;20456;-55
2022/03/29 05:09:49;;;;;;;6.00;3.63;;;10.10;1.00;;;;;;5021009;28;20471;-54
2022/03/29 05:12:16;;;;;;;6.45;3.33;;;10.10;1.00;;;;;;5020090;28;20886;-57
2022/03/29 05:14:43;;;;;;;5.40;3.20;;;10.00;1.00;;;;;;5019707;28;20793;-55
2022/03/29 05:17:10;;;;;;;5.38;2.55;;;10.10;1.00;;;;;;5018442;28;20443;-56
2022/03/29 05:19:37;;;;;;;5.82;2.80;;;10.20;1.00;;;;;;5016300;28;20424;-58
2022/03/29 05:22:06;;;;;;;4.55;2.75;;;10.30;1.00;;;;;;5015583;28;20511;-55
2022/03/29 05:24:33;;;;;;;5.35;3.65;;;10.30;1.00;;;;;;5014760;28;20801;-54
2022/03/29 05:26:59;;;;;;;4.80;2.67;;;10.30;1.00;;;;;;5014362;28;20806;-54
2022/03/29 05:29:28;;;;;;;4.72;2.60;;;10.30;1.00;;;;;;5015230;28;20911;-56
2022/03/29 05:31:54;;;;;;;6.28;3.40;;;10.30;1.00;;;;;;5013376;28;20534;-53
2022/03/29 05:34:22;;;;;;;6.10;3.38;;;10.60;1.00;;;;;;5014172;28;20421;-55
2022/03/29 05:36:49;;;;;;;6.30;2.60;;;10.70;1.00;;;;;;5014527;28;20531;-54
2022/03/29 05:39:19;;;;;;;3.97;3.27;;;10.90;1.00;;;;;;5013810;28;20428;-56
2022/03/29 05:41:46;;;;;;;5.13;3.67;;;11.00;1.00;;;;;;5014431;28;20455;-54
2022/03/29 05:44:13;;;;;;;5.78;3.65;;;11.10;1.00;;;;;;5015142;28;20515;-53
2022/03/29 05:49:26;;;;;;;6.70;2.80;;;11.00;1.00;;;;;;5011767;28;20400;-57
2022/03/29 05:51:53;;;;;;;6.22;3.50;;;11.00;1.00;;;;;;5012423;28;20803;-54
2022/03/29 05:54:21;;;;;;;6.38;3.75;;;11.20;1.00;;;;;;5012318;28;20507;-56
2022/03/29 05:56:49;;;;;;;4.82;3.22;;;11.20;1.00;;;;;;5012803;28;20792;-55
2022/03/29 05:59:16;;;;;;;5.45;2.80;;;11.00;1.00;;;;;;5013408;28;20904;-56
2022/03/29 06:01:43;;;;;;;5.53;3.30;;;11.00;1.00;;;;;;5012120;28;20819;-53
2022/03/29 06:04:10;;;;;;;5.55;3.25;;;11.10;1.00;;;;;;5014600;28;20440;-53
2022/03/29 06:06:39;;;;;;;7.37;3.60;;;11.20;1.00;;;;;;5012457;28;20439;-56
2022/03/29 06:09:07;;;;;;;5.47;3.13;;;11.10;1.00;;;;;;5013396;28;20506;-52
2022/03/29 06:11:35;;;;;;;7.28;3.58;;;11.10;1.00;;;;;;5013651;28;20526;-55
2022/03/29 06:14:02;;;;;;;6.90;3.10;;;11.10;1.00;;;;;;5012998;28;20447;-54
2022/03/29 06:16:32;;;;;;;7.07;3.15;;;11.30;1.00;;;;;;5012264;28;20421;-55
2022/03/29 06:18:59;;;;;;;6.95;3.83;;;11.40;1.00;;;;;;5011902;28;20432;-53
2022/03/29 06:21:26;;;;;;;6.72;3.67;;;11.40;1.00;;;;;;5011584;28;20889;-57
2022/03/29 06:23:53;;;;;;;6.45;3.97;;;11.60;1.00;;;;;;5011588;28;20431;-49
2022/03/29 06:26:19;;;;;;;4.30;3.43;;;11.50;1.00;;;;;;5017142;28;20528;-52
2022/03/29 06:28:48;;;;;;;6.50;4.10;;;11.30;1.00;;;;;;5032928;28;20459;-51
2022/03/29 06:31:14;;;;;;;7.70;4.70;;;11.10;1.00;;;;;;5031407;28;20546;-53
2022/03/29 06:33:41;;;;;;;6.43;4.00;;;11.00;1.00;;;;;;5032332;28;20459;-51
2022/03/29 06:36:08;;;;;;;7.47;3.80;;;11.00;1.00;;;;;;5034276;28;20517;-54
2022/03/29 06:38:35;;;;;;;8.43;4.40;;;11.00;1.00;;;;;;5034136;28;20683;-55
2022/03/29 06:41:02;;;;;;;9.98;4.80;;;11.00;1.00;;;;;;5032503;28;20495;-53
2022/03/29 06:43:29;;;;;;;6.00;3.10;;;11.00;1.00;;;;;;5032680;28;20811;-55
2022/03/29 06:45:57;;;;;;;6.55;3.10;;;11.00;1.00;;;;;;5030639;28;20431;-51
2022/03/29 06:48:25;;;;;;;10.45;3.40;;;11.10;1.00;;;;;;5031562;28;20561;-53
2022/03/29 06:50:51;;;;;;;8.95;4.18;;;11.20;1.00;;;;;;5032033;28;20507;-52
2022/03/29 06:53:18;;;;;;;7.55;3.85;;;11.30;1.00;;;;;;5031212;28;20471;-55
2022/03/29 06:55:45;;;;;;;10.17;3.13;;;11.60;1.00;;;;;;5031352;28;20745;-55
2022/03/29 06:58:12;;;;;;;6.87;2.73;;;11.70;1.00;;;;;;5030607;28;20445;-52
2022/03/29 07:00:39;;;;;;;3.90;2.23;;;11.70;1.00;;;;;;5033336;28;20448;-48
2022/03/29 07:03:08;;;;;;;9.20;3.77;;;11.70;1.00;;;;;;5032581;28;20522;-55
2022/03/29 07:05:36;;;;;;;9.27;3.97;;;12.00;1.00;;;;;;5011850;28;20511;-53
2022/03/29 07:08:03;;;;;;;8.00;3.40;;;12.10;1.00;;;;;;5020013;28;20510;-50
2022/03/29 07:13:14;;;;;;;5.53;3.37;;;12.00;1.00;;;;;;5031225;28;20431;-48
2022/03/29 07:15:41;;;;;;;5.43;2.03;;;12.10;1.00;;;;;;5030979;28;20663;-54
2022/03/29 07:18:10;;;;;;;9.43;3.60;;;12.10;1.00;;;;;;5032591;28;20448;-54
2022/03/29 07:20:36;;;;;;;7.53;3.37;;;12.10;1.00;;;;;;5033545;28;20522;-54
2022/03/29 07:23:04;;;;;;;6.23;2.93;;;12.10;1.00;;;;;;5032934;28;20535;-53
2022/03/29 07:25:32;;;;;;;4.73;2.37;;;11.90;1.00;;;;;;5034340;28;20554;-54
2022/03/29 07:27:59;;;;;;;9.97;3.30;;;11.90;1.00;;;;;;5029654;28;20459;-54
2022/03/29 07:30:26;;;;;;;9.30;4.60;;;12.00;1.00;;;;;;5031833;28;20542;-53
2022/03/29 07:32:56;;;;;;;5.53;2.57;;;12.00;1.00;;;;;;5033320;28;20186;-56
2022/03/29 07:35:28;;;;;;;20.27;4.37;;;12.20;1.00;;;;;;5032229;28;20893;-56
2022/03/29 07:37:55;;;;;;;6.50;2.47;;;12.20;1.00;;;;;;5032964;28;20569;-54
2022/03/29 07:40:25;;;;;;;7.77;3.70;;;12.30;1.00;;;;;;5034781;28;20484;-55
2022/03/29 07:42:52;;;;;;;6.53;2.80;;;12.30;1.00;;;;;;5022206;28;20453;-54
2022/03/29 07:45:20;;;;;;;8.47;3.40;;;12.40;1.00;;;;;;5028533;28;20752;-54
2022/03/29 07:47:48;;;;;;;8.33;3.60;;;12.50;1.00;;;;;;5029942;28;20995;-55
2022/03/29 07:50:15;;;;;;;7.47;2.63;;;12.50;1.00;;;;;;5028855;28;20906;-53
2022/03/29 07:52:44;;;;;;;7.47;3.97;;;12.50;1.00;;;;;;5025941;28;20795;-56
2022/03/29 07:55:12;;;;;;;3.23;2.00;;;12.70;1.00;;;;;;5011595;28;20441;-57
2022/03/29 07:57:40;;;;;;;5.60;3.43;;;12.60;1.00;;;;;;5012034;28;20493;-55
2022/03/29 08:02:50;;;;;;;5.80;1.67;;;12.80;1.00;;;;;;5016794;28;20504;-55
2022/03/29 08:05:17;;;;;;;5.07;2.67;;;13.20;1.00;;;;;;5033646;28;20448;-54
2022/03/29 08:07:46;;;;;;;10.60;3.87;;;13.30;1.00;;;;;;5019349;28;20457;-55
2022/03/29 08:10:13;;;;;;;8.07;2.90;;;13.40;1.00;;;;;;5014602;28;20919;-54
2022/03/29 08:12:40;;;;;;;6.60;3.83;;;13.30;1.00;;;;;;5015782;28;20465;-54
2022/03/29 08:15:10;;;;;;;7.33;4.57;;;13.40;1.00;;;;;;5033391;28;20236;-50
2022/03/29 08:17:38;;;;;;;9.20;4.83;;;13.50;1.00;;;;;;5032249;28;20887;-53
2022/03/29 08:20:06;;;;;;;10.43;4.37;;;13.50;1.00;;;;;;5033486;28;20458;-53
2022/03/29 08:22:34;;;;;;;8.60;4.10;;;13.50;1.00;;;;;;5024525;28;20785;-51
2022/03/29 08:25:04;;;;;;;10.40;7.20;;;13.70;1.00;;;;;;5014861;28;20447;-55
2022/03/29 08:27:31;;;;;;;6.67;4.70;;;13.80;1.00;;;;;;5030908;28;20547;-54
2022/03/29 08:29:58;;;;;;;9.77;5.30;;;13.80;1.00;;;;;;5033044;28;20782;-53
2022/03/29 08:32:25;;;;;;;8.10;3.80;;;13.80;1.00;;;;;;5033980;28;20460;-53
2022/03/29 08:34:52;;;;;;;7.50;4.20;;;13.90;1.00;;;;;;5032565;28;20539;-52
2022/03/29 08:37:20;;;;;;;8.33;4.27;;;13.90;1.00;;;;;;5032914;28;20519;-51
2022/03/29 08:39:47;;;;;;;7.80;3.50;;;14.10;1.00;;;;;;5032175;28;20452;-54
2022/03/29 08:42:16;;;;;;;5.80;3.43;;;14.30;1.00;;;;;;5033393;28;20978;-55
2022/03/29 08:44:44;;;;;;;7.17;3.13;;;14.30;1.00;;;;;;5031735;28;20479;-54
2022/03/29 08:47:12;;;;;;;4.30;3.90;;;14.30;1.00;;;;;;5032033;28;20512;-52
2022/03/29 08:49:39;;;;;;;11.40;4.43;;;14.50;1.00;;;;;;5031941;28;20460;-53
2022/03/29 08:52:07;;;;;;;10.10;5.60;;;14.60;1.00;;;;;;5031299;28;20869;-50
2022/03/29 08:54:35;;;;;;;9.20;5.23;;;14.80;1.00;;;;;;5034741;28;20448;-54
2022/03/29 08:57:02;;;;;;;7.17;4.17;;;14.90;1.00;;;;;;5033975;28;20452;-52
2022/03/29 08:59:30;;;;;;;8.33;4.30;;;15.00;99.90;;;;;;5035426;28;20534;-55
2022/03/29 09:01:58;;;;;;;6.03;3.80;;;15.10;99.90;;;;;;5033847;28;20538;-54
2022/03/29 09:04:29;;;;;;;5.97;2.67;;;15.10;99.90;;;;;;5035675;28;20823;-55
2022/03/29 09:07:00;;;;;;;8.37;4.37;;;15.00;99.90;;;;;;5035566;28;20487;-55
2022/03/29 09:09:29;;;;;;;13.40;4.93;;;15.10;99.90;;;;;;5036261;28;20535;-55
2022/03/29 09:11:57;;;;;;;8.67;3.00;;;15.40;99.90;;;;;;5034984;28;20460;-54
2022/03/29 09:14:25;;;;;;;8.97;4.60;;;15.60;99.90;;;;;;5029504;28;20523;-56
2022/03/29 09:16:53;;;;;;;8.40;5.37;;;15.60;99.90;;;;;;5034383;28;20513;-55
2022/03/29 09:19:21;;;;;;;5.70;3.70;;;15.80;99.90;;;;;;5034152;28;20491;-54
2022/03/29 09:21:48;;;;;;;5.90;4.03;;;15.70;99.90;;;;;;5035183;28;20534;-56
2022/03/29 09:24:17;;;;;;;9.27;4.43;;;15.80;99.90;;;;;;5035188;28;20915;-54
2022/03/29 09:26:46;;;;;;;13.80;5.07;;;15.90;99.90;;;;;;5033163;28;20488;-54
2022/03/29 09:29:17;;;;;;;8.40;4.00;;;15.80;99.90;;;;;;5035240;28;20903;-54
2022/03/29 09:31:45;;;;;;;8.07;3.37;;;15.70;99.90;;;;;;5035272;28;20554;-53
2022/03/29 09:34:16;;;;;;;6.63;3.47;;;15.80;99.90;;;;;;5034110;28;20541;-54
2022/03/29 09:36:45;;;;;;;6.70;3.27;;;16.00;99.90;;;;;;5034577;28;20554;-55
2022/03/29 09:39:30;;;;;;;7.57;4.20;;;15.90;99.90;;;;;;5034734;28;20448;-48
2022/03/29 09:41:59;;;;;;;7.30;2.90;;;16.20;99.90;;;;;;5036596;28;20712;-52
2022/03/29 09:44:35;;;;;;;6.27;3.33;;;16.30;99.90;;;;;;5035932;28;20450;-52
2022/03/29 09:47:04;;;;;;;7.57;3.73;;;16.40;99.90;;;;;;5034030;28;20502;-54
2022/03/29 09:49:53;;;;;;;6.73;4.00;;;16.30;99.90;;;;;;5021735;28;20460;-54
2022/03/29 09:52:21;;;;;;;7.47;3.97;;;16.40;99.90;;;;;;5015610;28;20477;-50
2022/03/29 09:55:07;;;;;;;7.23;3.70;;;16.00;99.90;;;;;;5014998;28;20756;-52
2022/03/29 09:57:35;;;;;;;6.67;3.17;;;16.00;99.90;;;;;;5023067;28;20551;-56
2022/03/29 10:00:04;;;;;;;4.77;2.57;;;16.00;99.90;;;;;;5033490;28;20535;-51
2022/03/29 10:02:36;;;;;;;6.90;3.07;;;16.10;99.90;;;;;;5034094;28;20935;-54
2022/03/29 10:05:05;;;;;;;7.40;3.30;;;16.20;99.90;;;;;;5034001;28;20471;-53
2022/03/29 10:07:38;;;;;;;6.07;2.77;;;16.40;99.90;;;;;;5031061;28;20519;-52
2022/03/29 10:10:08;;;;;;;4.07;3.07;;;16.60;99.90;;;;;;5016283;28;20453;-51
2022/03/29 10:12:36;;;;;;;8.80;4.90;;;16.70;99.90;;;;;;5013502;28;20893;-56
2022/03/29 10:15:04;;;;;;;7.70;3.93;;;17.00;99.90;;;;;;5014413;28;20484;-54
2022/03/29 10:17:32;;;;;;;3.90;2.20;;;17.30;99.90;;;;;;5012734;28;20635;-54
2022/03/29 10:20:00;;;;;;;8.33;3.67;;;17.20;99.90;;;;;;5007765;28;20986;-52
2022/03/29 10:22:28;;;;;;;4.50;2.40;;;17.00;99.90;;;;;;5011948;28;20519;-53
2022/03/29 10:24:55;;;;;;;6.70;3.47;;;16.90;99.90;;;;;;5012232;28;20445;-54
2022/03/29 10:27:25;;;;;;;4.80;2.83;;;17.00;99.90;;;;;;5013849;28;20583;-56
2022/03/29 10:29:52;;;;;;;6.60;4.13;;;17.00;99.90;;;;;;5011951;28;20532;-54
2022/03/29 10:32:29;;;;;;;5.00;3.30;;;17.00;99.90;;;;;;5012515;28;20495;-56
2022/03/29 10:35:12;;;;;;;7.40;2.73;;;16.90;99.90;;;;;;5013694;28;20448;-56
2022/03/29 10:37:55;;;;;;;7.30;2.60;;;17.20;99.90;;;;;;5010543;28;20449;-54
2022/03/29 10:40:36;;;;;;;4.90;3.27;;;17.60;99.90;;;;;;5012622;28;20761;-53
2022/03/29 10:43:32;;;;;;;7.87;3.33;;;17.80;99.90;;;;;;5014387;28;20459;-57
2022/03/29 10:45:59;;;;;;;8.67;3.63;;;18.00;99.90;;;;;;5013964;28;20828;-56
2022/03/29 10:48:27;;;;;;;9.40;3.43;;;18.20;99.90;;;;;;5015111;28;20715;-55
2022/03/29 10:50:59;;;;;;;7.17;2.93;;;18.30;99.90;;;;;;5013070;28;20461;-57
2022/03/29 10:53:30;;;;;;;6.73;2.83;;;18.40;99.90;;;;;;5012363;28;20484;-57
2022/03/29 10:56:25;;;;;;;8.23;4.53;;;18.60;99.90;;;;;;5012153;28;20492;-56
2022/03/29 10:59:14;;;;;;;7.47;2.97;;;18.60;99.90;;;;;;4967411;28;20881;-55
2022/03/29 11:01:42;;;;;;;6.43;3.00;;;18.60;99.90;;;;;;5012453;28;20547;-59
2022/03/29 11:04:16;;;;;;;4.20;2.77;;;18.40;99.90;;;;;;5014596;28;21031;-56
2022/03/29 11:07:14;;;;;;;5.23;3.00;;;18.60;99.90;;;;;;5032725;28;20486;-57
2022/03/29 11:09:47;;;;;;;5.30;3.07;;;18.90;99.90;;;;;;4973932;28;20447;-55
2022/03/29 11:12:38;;;;;;;3.83;2.13;;;18.90;99.90;;;;;;5021848;28;20834;-56
2022/03/29 11:15:47;;;;;;;7.33;2.33;;;19.00;99.90;;;;;;5030823;28;20758;-56
2022/03/29 11:18:41;;;;;;;5.97;3.70;;;19.20;99.90;;;;;;5029833;28;20487;-56
2022/03/29 11:21:10;;;;;;;4.23;2.07;;;19.20;99.90;;;;;;5027496;28;20488;-57
2022/03/29 11:23:39;;;;;;;5.60;3.53;;;19.30;99.90;;;;;;5026709;28;20546;-55
2022/03/29 11:26:12;;;;;;;6.80;3.63;;;19.10;99.90;;;;;;5020666;28;20477;-54
2022/03/29 11:28:47;;;;;;;6.30;3.80;;;19.20;99.90;;;;;;5026713;28;20464;-56
2022/03/29 11:31:14;;;;;;;8.43;4.00;;;19.20;99.90;;;;;;5014202;28;20560;-56
2022/03/29 11:33:43;;;;;;;5.20;3.30;;;19.10;99.90;;;;;;5018779;28;20876;-53
2022/03/29 11:36:12;;;;;;;6.57;4.00;;;18.90;99.90;;;;;;5012352;28;20453;-56
2022/03/29 11:38:39;;;;;;;6.03;3.20;;;19.00;99.90;;;;;;5012025;28;20795;-57
2022/03/29 11:41:19;;;;;;;4.53;3.50;;;19.30;99.90;;;;;;5010764;28;20959;-57
2022/03/29 11:43:52;;;;;;;5.43;3.63;;;19.40;99.90;;;;;;5011497;28;20540;-57
2022/03/29 11:46:19;;;;;;;7.90;3.33;;;19.50;99.90;;;;;;5011489;28;20456;-58
2022/03/29 11:48:49;;;;;;;7.30;4.07;;;19.50;99.90;;;;;;5012090;28;20473;-57
2022/03/29 11:51:17;;;;;;;7.30;3.10;;;19.40;99.90;;;;;;5011520;28;20464;-57
2022/03/29 11:53:44;;;;;;;10.63;4.17;;;19.60;99.90;;;;;;5013333;28;20446;-57
2022/03/29 11:56:19;;;;;;;9.63;4.80;;;20.00;99.90;;;;;;5011385;28;20456;-58
2022/03/29 11:58:52;;;;;;;8.23;3.70;;;20.10;99.90;;;;;;5011394;28;20463;-57
2022/03/29 12:01:21;;;;;;;7.10;3.40;;;19.80;99.90;;;;;;5011051;28;20493;-55
2022/03/29 12:03:53;;;;;;;6.23;3.33;;;19.60;99.90;;;;;;5010747;28;20514;-58
2022/03/29 12:06:22;;;;;;;6.30;3.73;;;19.60;99.90;;;;;;5009902;28;20787;-58
2022/03/29 12:08:55;;;;;;;5.60;3.10;;;19.80;99.90;;;;;;5011450;28;20747;-58
2022/03/29 12:11:27;;;;;;;9.47;5.00;;;19.60;99.90;;;;;;5011641;28;20988;-58
2022/03/29 12:14:03;;;;;;;6.70;3.80;;;19.60;99.90;;;;;;5012779;28;20453;-59
2022/03/29 12:16:32;;;;;;;5.50;2.87;;;19.60;99.90;;;;;;5009987;28;20448;-59
2022/03/29 12:18:59;;;;;;;6.90;3.43;;;19.70;99.90;;;;;;5011960;28;20441;-58
2022/03/29 12:21:26;;;;;;;9.47;5.20;;;19.40;99.90;;;;;;5011597;28;20461;-59
2022/03/29 12:24:03;;;;;;;5.20;3.37;;;19.40;99.90;;;;;;5013523;28;20449;-58
2022/03/29 12:26:32;;;;;;;8.60;3.40;;;19.60;99.90;;;;;;5025591;28;20472;-59
2022/03/29 12:29:01;;;;;;;8.13;3.80;;;19.70;99.90;;;;;;5035620;28;20510;-59
2022/03/29 12:31:29;;;;;;;8.63;4.93;;;20.10;99.90;;;;;;5034309;28;20459;-59
2022/03/29 12:33:57;;;;;;;7.17;4.33;;;20.00;99.90;;;;;;5033983;28;20472;-58
2022/03/29 12:36:24;;;;;;;7.77;3.53;;;19.90;99.90;;;;;;5034826;28;20525;-59
2022/03/29 12:38:53;;;;;;;10.60;4.23;;;19.70;99.90;;;;;;5035224;28;20511;-59
2022/03/29 12:41:37;;;;;;;9.37;4.27;;;19.60;99.90;;;;;;5034103;28;20458;-59
2022/03/29 12:44:06;;;;;;;8.63;4.27;;;19.60;99.90;;;;;;5020424;28;20476;-59
2022/03/29 12:46:33;;;;;;;9.50;4.00;;;19.60;99.90;;;;;;5020831;28;20571;-59
2022/03/29 12:49:00;;;;;;;6.03;2.83;;;19.50;99.90;;;;;;5018450;28;20449;-59
2022/03/29 12:51:30;;;;;;;8.23;3.07;;;19.70;99.90;;;;;;5011996;28;20831;-59
2022/03/29 12:53:59;;;;;;;6.20;3.87;;;19.50;99.90;;;;;;5011967;28;20573;-59
2022/03/29 12:56:35;;;;;;;7.20;3.60;;;19.40;99.90;;;;;;5012467;28;20484;-59
2022/03/29 12:59:27;;;;;;;6.47;3.87;;;19.60;99.90;;;;;;5014528;28;20468;-59
2022/03/29 13:02:00;;;;;;;7.73;4.67;;;19.70;99.90;;;;;;5013030;28;20542;-59
2022/03/29 13:04:37;;;;;;;5.53;4.37;;;19.50;99.90;;;;;;5013660;28;20460;-59
2022/03/29 13:07:05;;;;;;;8.80;4.10;;;19.60;99.90;;;;;;5012517;28;20927;-59
2022/03/29 13:09:31;;;;;;;7.20;3.20;;;19.50;99.90;;;;;;5014533;28;20697;-59